Startpagina
METAR-TAF:

METAR-TAF

Vliegvelden :

Roman Tmetuchl International Airport

Koror, Babeldaob, Palau

breedte: 07-22N, lengte: 134-32E, hoogte: 54 m

Actueel weer

Dit bericht is 19 minuten geleden gemaakt, om 17:52 UTC
Wind 4 kt uit het noordoosten
Temperatuur 24°C
Vochtigheid 94%
Druk 1008 hPa
Zicht: 20.9 km
Gebroken wolken op 1600 ft, Cumulonimbus.
Geheel bewolkt op 29000 ft

METAR: PTRO 121752Z 05004KT 13SM BKN016CB OVC290 24/23 A2977 RMK CB ALQDS

Tijdstip: 03:11 (18:11 UTC)

Verwachting

Dit bericht is 45 minuten geleden gemaakt, om 17:26 UTC
Verwachting geldig van 12 om 18 UTC tot 13 om 18 UTC
Wind 7 kt uit het noordoosten
Zicht: 10 km
Verspreide wolken op 1500 ft
Gebroken wolken op 12000 ft
Geheel bewolkt op 29000 ft
buien in de omgeving
Tijdelijke
van 12 om 18 UTC tot 12 om 22 UTC
Gebroken wolken op 1500 ft
Gebroken wolken op 10000 ft
Geheel bewolkt op 29000 ft
lichte regenbuien

TAF: PTRO 121726Z 1218/1318 05007KT P6SM VCSH SCT015 BKN120 OVC290 TEMPO 1218/1222 -SHRA BKN015 BKN100 OVC290

Waarnemingen en weersverwachtingen van meer dan 4000 vliegvelden (METAR en TAF).

De beschikbare stations zijn de gele en rode punten op de kaart.

Ga met uw muis naar het station om de naam te zien.

Klik dan om waarnemingen en weersverwachtingen te zien.

kaart wijzigen: klik op de groene knoppen met een zwart kruis om in te zoomen, op de groene knop met een streepje om uit te zoomen of op de groene pijlen voor aangrenzende kaarten.


METAR-TAF: